sensor_id;sensor_type;location;lat;lon;timestamp;P1;durP1;ratioP1;P2;durP2;ratioP2
9248;SDS011;4660;41.768;26.198;2022-07-09T00:01:36;5.07;;;3.80;;
9248;SDS011;4660;41.768;26.198;2022-07-09T00:04:01;4.63;;;4.22;;
9248;SDS011;4660;41.768;26.198;2022-07-09T00:06:27;3.75;;;3.45;;
9248;SDS011;4660;41.768;26.198;2022-07-09T00:08:54;7.78;;;4.07;;
9248;SDS011;4660;41.768;26.198;2022-07-09T00:11:19;4.97;;;3.80;;
9248;SDS011;4660;41.768;26.198;2022-07-09T00:13:45;5.57;;;3.90;;
9248;SDS011;4660;41.768;26.198;2022-07-09T00:16:10;4.55;;;4.15;;
9248;SDS011;4660;41.768;26.198;2022-07-09T00:18:36;4.38;;;3.85;;
9248;SDS011;4660;41.768;26.198;2022-07-09T00:21:02;5.20;;;4.75;;
9248;SDS011;4660;41.768;26.198;2022-07-09T00:23:27;4.20;;;3.80;;
9248;SDS011;4660;41.768;26.198;2022-07-09T00:25:53;4.80;;;4.32;;
9248;SDS011;4660;41.768;26.198;2022-07-09T00:28:18;4.10;;;3.70;;
9248;SDS011;4660;41.768;26.198;2022-07-09T00:30:44;4.32;;;3.90;;
9248;SDS011;4660;41.768;26.198;2022-07-09T00:33:10;5.90;;;4.20;;
9248;SDS011;4660;41.768;26.198;2022-07-09T00:35:35;4.35;;;4.00;;
9248;SDS011;4660;41.768;26.198;2022-07-09T00:38:01;4.35;;;3.95;;
9248;SDS011;4660;41.768;26.198;2022-07-09T00:40:27;5.97;;;4.45;;
9248;SDS011;4660;41.768;26.198;2022-07-09T00:42:52;5.43;;;4.03;;
9248;SDS011;4660;41.768;26.198;2022-07-09T00:45:18;7.70;;;4.47;;
9248;SDS011;4660;41.768;26.198;2022-07-09T00:47:43;4.18;;;3.80;;
9248;SDS011;4660;41.768;26.198;2022-07-09T00:50:09;4.40;;;4.00;;
9248;SDS011;4660;41.768;26.198;2022-07-09T00:52:35;6.50;;;3.85;;
9248;SDS011;4660;41.768;26.198;2022-07-09T00:55:03;4.18;;;3.88;;
9248;SDS011;4660;41.768;26.198;2022-07-09T00:57:31;4.72;;;4.15;;
9248;SDS011;4660;41.768;26.198;2022-07-09T00:59:58;5.53;;;4.07;;
9248;SDS011;4660;41.768;26.198;2022-07-09T01:02:25;8.32;;;3.83;;
9248;SDS011;4660;41.768;26.198;2022-07-09T01:04:50;4.68;;;3.60;;
9248;SDS011;4660;41.768;26.198;2022-07-09T01:07:16;4.28;;;3.97;;
9248;SDS011;4660;41.768;26.198;2022-07-09T01:09:42;4.30;;;3.90;;
9248;SDS011;4660;41.768;26.198;2022-07-09T01:12:08;4.70;;;4.28;;
9248;SDS011;4660;41.768;26.198;2022-07-09T01:14:34;4.30;;;3.90;;
9248;SDS011;4660;41.768;26.198;2022-07-09T01:17:00;4.93;;;4.43;;
9248;SDS011;4660;41.768;26.198;2022-07-09T01:19:27;4.25;;;3.88;;
9248;SDS011;4660;41.768;26.198;2022-07-09T01:21:53;6.55;;;4.22;;
9248;SDS011;4660;41.768;26.198;2022-07-09T01:24:20;4.82;;;4.43;;
9248;SDS011;4660;41.768;26.198;2022-07-09T01:26:46;5.45;;;4.55;;
9248;SDS011;4660;41.768;26.198;2022-07-09T01:29:13;5.28;;;4.78;;
9248;SDS011;4660;41.768;26.198;2022-07-09T01:31:38;5.95;;;4.47;;
9248;SDS011;4660;41.768;26.198;2022-07-09T01:34:04;5.30;;;4.85;;
9248;SDS011;4660;41.768;26.198;2022-07-09T01:36:30;5.20;;;4.80;;
9248;SDS011;4660;41.768;26.198;2022-07-09T01:38:55;11.43;;;5.22;;
9248;SDS011;4660;41.768;26.198;2022-07-09T01:41:21;5.63;;;5.15;;
9248;SDS011;4660;41.768;26.198;2022-07-09T01:43:46;5.68;;;5.18;;
9248;SDS011;4660;41.768;26.198;2022-07-09T01:46:12;6.13;;;5.53;;
9248;SDS011;4660;41.768;26.198;2022-07-09T01:48:37;6.35;;;5.35;;
9248;SDS011;4660;41.768;26.198;2022-07-09T01:51:07;6.25;;;5.50;;
9248;SDS011;4660;41.768;26.198;2022-07-09T01:53:34;5.90;;;5.40;;
9248;SDS011;4660;41.768;26.198;2022-07-09T01:56:07;5.78;;;5.28;;
9248;SDS011;4660;41.768;26.198;2022-07-09T01:58:35;6.82;;;5.72;;
9248;SDS011;4660;41.768;26.198;2022-07-09T02:01:01;7.30;;;6.53;;
9248;SDS011;4660;41.768;26.198;2022-07-09T02:03:27;7.25;;;6.53;;
9248;SDS011;4660;41.768;26.198;2022-07-09T02:05:52;6.53;;;5.93;;
9248;SDS011;4660;41.768;26.198;2022-07-09T02:08:18;6.85;;;6.25;;
9248;SDS011;4660;41.768;26.198;2022-07-09T02:10:44;6.95;;;6.35;;
9248;SDS011;4660;41.768;26.198;2022-07-09T02:13:11;6.30;;;5.70;;
9248;SDS011;4660;41.768;26.198;2022-07-09T02:15:37;6.63;;;6.03;;
9248;SDS011;4660;41.768;26.198;2022-07-09T02:18:04;6.43;;;5.70;;
9248;SDS011;4660;41.768;26.198;2022-07-09T02:20:30;6.03;;;5.35;;
9248;SDS011;4660;41.768;26.198;2022-07-09T02:22:55;5.90;;;5.40;;
9248;SDS011;4660;41.768;26.198;2022-07-09T02:25:21;6.05;;;5.55;;
9248;SDS011;4660;41.768;26.198;2022-07-09T02:27:48;6.45;;;5.95;;
9248;SDS011;4660;41.768;26.198;2022-07-09T02:30:13;5.78;;;5.25;;
9248;SDS011;4660;41.768;26.198;2022-07-09T02:32:39;5.80;;;5.30;;
9248;SDS011;4660;41.768;26.198;2022-07-09T02:35:05;6.00;;;5.43;;
9248;SDS011;4660;41.768;26.198;2022-07-09T02:37:31;4.82;;;4.43;;
9248;SDS011;4660;41.768;26.198;2022-07-09T02:39:57;5.88;;;5.28;;
9248;SDS011;4660;41.768;26.198;2022-07-09T02:42:23;4.90;;;4.50;;
9248;SDS011;4660;41.768;26.198;2022-07-09T02:44:48;6.70;;;5.07;;
9248;SDS011;4660;41.768;26.198;2022-07-09T02:47:14;4.55;;;4.25;;
9248;SDS011;4660;41.768;26.198;2022-07-09T02:49:40;4.88;;;4.47;;
9248;SDS011;4660;41.768;26.198;2022-07-09T02:52:06;4.75;;;4.40;;
9248;SDS011;4660;41.768;26.198;2022-07-09T02:54:32;5.10;;;4.60;;
9248;SDS011;4660;41.768;26.198;2022-07-09T02:56:59;4.82;;;4.38;;
9248;SDS011;4660;41.768;26.198;2022-07-09T02:59:25;4.85;;;4.55;;
9248;SDS011;4660;41.768;26.198;2022-07-09T03:01:51;6.22;;;4.88;;
9248;SDS011;4660;41.768;26.198;2022-07-09T03:04:17;5.25;;;4.75;;
9248;SDS011;4660;41.768;26.198;2022-07-09T03:06:43;4.53;;;4.13;;
9248;SDS011;4660;41.768;26.198;2022-07-09T03:09:09;5.35;;;4.85;;
9248;SDS011;4660;41.768;26.198;2022-07-09T03:11:35;5.25;;;4.75;;
9248;SDS011;4660;41.768;26.198;2022-07-09T03:14:00;5.65;;;5.15;;
9248;SDS011;4660;41.768;26.198;2022-07-09T03:16:26;4.95;;;4.55;;
9248;SDS011;4660;41.768;26.198;2022-07-09T03:18:52;4.68;;;4.30;;
9248;SDS011;4660;41.768;26.198;2022-07-09T03:21:17;5.63;;;5.18;;
9248;SDS011;4660;41.768;26.198;2022-07-09T03:23:43;5.13;;;4.53;;
9248;SDS011;4660;41.768;26.198;2022-07-09T03:26:08;5.15;;;4.65;;
9248;SDS011;4660;41.768;26.198;2022-07-09T03:28:36;4.45;;;4.10;;
9248;SDS011;4660;41.768;26.198;2022-07-09T03:31:02;7.53;;;4.57;;
9248;SDS011;4660;41.768;26.198;2022-07-09T03:33:27;5.13;;;4.13;;
9248;SDS011;4660;41.768;26.198;2022-07-09T03:35:53;4.15;;;3.83;;
9248;SDS011;4660;41.768;26.198;2022-07-09T03:38:20;5.10;;;4.57;;
9248;SDS011;4660;41.768;26.198;2022-07-09T03:40:46;4.93;;;4.30;;
9248;SDS011;4660;41.768;26.198;2022-07-09T03:43:11;4.03;;;3.72;;
9248;SDS011;4660;41.768;26.198;2022-07-09T03:45:37;4.65;;;4.25;;
9248;SDS011;4660;41.768;26.198;2022-07-09T03:48:03;4.82;;;4.40;;
9248;SDS011;4660;41.768;26.198;2022-07-09T03:50:29;4.88;;;4.47;;
9248;SDS011;4660;41.768;26.198;2022-07-09T03:52:54;4.65;;;4.28;;
9248;SDS011;4660;41.768;26.198;2022-07-09T03:55:20;5.05;;;4.57;;
9248;SDS011;4660;41.768;26.198;2022-07-09T03:57:46;4.55;;;3.85;;
9248;SDS011;4660;41.768;26.198;2022-07-09T04:00:12;4.43;;;4.05;;
9248;SDS011;4660;41.768;26.198;2022-07-09T04:02:38;7.25;;;4.80;;
9248;SDS011;4660;41.768;26.198;2022-07-09T04:05:04;4.55;;;4.15;;
9248;SDS011;4660;41.768;26.198;2022-07-09T04:07:30;5.50;;;4.25;;
9248;SDS011;4660;41.768;26.198;2022-07-09T04:09:55;6.03;;;4.32;;
9248;SDS011;4660;41.768;26.198;2022-07-09T04:12:21;5.00;;;4.43;;
9248;SDS011;4660;41.768;26.198;2022-07-09T04:14:47;5.53;;;4.20;;
9248;SDS011;4660;41.768;26.198;2022-07-09T04:17:13;4.75;;;4.35;;
9248;SDS011;4660;41.768;26.198;2022-07-09T04:19:39;5.45;;;4.57;;
9248;SDS011;4660;41.768;26.198;2022-07-09T04:22:05;4.97;;;4.53;;
9248;SDS011;4660;41.768;26.198;2022-07-09T04:24:30;4.53;;;4.13;;
9248;SDS011;4660;41.768;26.198;2022-07-09T04:26:56;4.57;;;4.18;;
9248;SDS011;4660;41.768;26.198;2022-07-09T04:29:22;5.00;;;4.50;;
9248;SDS011;4660;41.768;26.198;2022-07-09T04:31:48;4.90;;;4.40;;
9248;SDS011;4660;41.768;26.198;2022-07-09T04:34:13;14.13;;;7.40;;
9248;SDS011;4660;41.768;26.198;2022-07-09T04:36:39;7.72;;;5.78;;
9248;SDS011;4660;41.768;26.198;2022-07-09T04:39:05;8.77;;;5.47;;
9248;SDS011;4660;41.768;26.198;2022-07-09T04:41:31;10.00;;;5.47;;
9248;SDS011;4660;41.768;26.198;2022-07-09T04:43:56;7.03;;;4.80;;
9248;SDS011;4660;41.768;26.198;2022-07-09T04:46:22;5.30;;;4.47;;
9248;SDS011;4660;41.768;26.198;2022-07-09T04:48:48;5.45;;;4.57;;
9248;SDS011;4660;41.768;26.198;2022-07-09T04:51:14;5.45;;;4.70;;
9248;SDS011;4660;41.768;26.198;2022-07-09T04:53:39;4.97;;;4.20;;
9248;SDS011;4660;41.768;26.198;2022-07-09T04:56:05;4.63;;;3.83;;
9248;SDS011;4660;41.768;26.198;2022-07-09T04:58:32;4.47;;;4.13;;
9248;SDS011;4660;41.768;26.198;2022-07-09T05:00:58;4.20;;;3.78;;
9248;SDS011;4660;41.768;26.198;2022-07-09T05:03:24;4.43;;;3.88;;
9248;SDS011;4660;41.768;26.198;2022-07-09T05:05:51;8.70;;;4.85;;
9248;SDS011;4660;41.768;26.198;2022-07-09T05:08:17;3.42;;;3.15;;
9248;SDS011;4660;41.768;26.198;2022-07-09T05:10:43;3.47;;;3.17;;
9248;SDS011;4660;41.768;26.198;2022-07-09T05:13:11;3.85;;;3.08;;
9248;SDS011;4660;41.768;26.198;2022-07-09T05:33:44;3.05;;;2.75;;
9248;SDS011;4660;41.768;26.198;2022-07-09T05:41:38;4.85;;;2.60;;
9248;SDS011;4660;41.768;26.198;2022-07-09T05:44:07;3.85;;;2.80;;
9248;SDS011;4660;41.768;26.198;2022-07-09T05:46:58;2.80;;;2.53;;
9248;SDS011;4660;41.768;26.198;2022-07-09T05:49:24;2.80;;;2.60;;
9248;SDS011;4660;41.768;26.198;2022-07-09T05:51:54;3.40;;;3.10;;
9248;SDS011;4660;41.768;26.198;2022-07-09T05:54:34;3.75;;;2.67;;
9248;SDS011;4660;41.768;26.198;2022-07-09T05:57:01;2.42;;;2.22;;
9248;SDS011;4660;41.768;26.198;2022-07-09T05:59:27;6.13;;;2.83;;
9248;SDS011;4660;41.768;26.198;2022-07-09T06:01:54;3.13;;;2.80;;
9248;SDS011;4660;41.768;26.198;2022-07-09T06:04:19;4.85;;;2.65;;
9248;SDS011;4660;41.768;26.198;2022-07-09T06:06:45;2.88;;;2.67;;
9248;SDS011;4660;41.768;26.198;2022-07-09T06:09:11;3.38;;;2.92;;
9248;SDS011;4660;41.768;26.198;2022-07-09T06:11:39;4.30;;;2.65;;
9248;SDS011;4660;41.768;26.198;2022-07-09T06:14:04;4.07;;;2.58;;
9248;SDS011;4660;41.768;26.198;2022-07-09T06:16:31;3.28;;;2.92;;
9248;SDS011;4660;41.768;26.198;2022-07-09T06:18:57;7.22;;;2.40;;
9248;SDS011;4660;41.768;26.198;2022-07-09T06:21:24;5.57;;;3.28;;
9248;SDS011;4660;41.768;26.198;2022-07-09T06:23:51;3.95;;;2.63;;
9248;SDS011;4660;41.768;26.198;2022-07-09T06:26:19;5.78;;;2.67;;
9248;SDS011;4660;41.768;26.198;2022-07-09T06:28:44;3.00;;;2.78;;
9248;SDS011;4660;41.768;26.198;2022-07-09T06:31:13;2.80;;;2.60;;
9248;SDS011;4660;41.768;26.198;2022-07-09T06:33:55;3.45;;;2.85;;
9248;SDS011;4660;41.768;26.198;2022-07-09T06:36:25;3.05;;;2.80;;
9248;SDS011;4660;41.768;26.198;2022-07-09T06:39:12;2.65;;;2.45;;
9248;SDS011;4660;41.768;26.198;2022-07-09T06:42:04;3.05;;;2.50;;
9248;SDS011;4660;41.768;26.198;2022-07-09T06:44:53;3.10;;;2.78;;
9248;SDS011;4660;41.768;26.198;2022-07-09T06:47:19;2.88;;;2.60;;
9248;SDS011;4660;41.768;26.198;2022-07-09T06:49:45;3.88;;;2.70;;
9248;SDS011;4660;41.768;26.198;2022-07-09T06:52:11;5.70;;;3.38;;
9248;SDS011;4660;41.768;26.198;2022-07-09T06:54:37;5.20;;;2.70;;
9248;SDS011;4660;41.768;26.198;2022-07-09T06:57:03;7.97;;;2.70;;
9248;SDS011;4660;41.768;26.198;2022-07-09T06:59:52;2.95;;;2.67;;
9248;SDS011;4660;41.768;26.198;2022-07-09T07:02:18;4.55;;;2.78;;
9248;SDS011;4660;41.768;26.198;2022-07-09T07:05:05;3.22;;;2.72;;
9248;SDS011;4660;41.768;26.198;2022-07-09T07:07:57;5.15;;;2.65;;
9248;SDS011;4660;41.768;26.198;2022-07-09T07:10:41;4.60;;;2.83;;
9248;SDS011;4660;41.768;26.198;2022-07-09T07:13:47;4.10;;;2.30;;
9248;SDS011;4660;41.768;26.198;2022-07-09T07:16:24;9.50;;;2.63;;
9248;SDS011;4660;41.768;26.198;2022-07-09T07:18:55;5.53;;;2.97;;
9248;SDS011;4660;41.768;26.198;2022-07-09T07:21:21;3.03;;;2.60;;
9248;SDS011;4660;41.768;26.198;2022-07-09T07:23:47;5.07;;;2.53;;
9248;SDS011;4660;41.768;26.198;2022-07-09T07:26:13;3.83;;;2.38;;
9248;SDS011;4660;41.768;26.198;2022-07-09T07:28:39;3.65;;;2.78;;
9248;SDS011;4660;41.768;26.198;2022-07-09T07:31:07;8.43;;;2.67;;
9248;SDS011;4660;41.768;26.198;2022-07-09T07:33:35;2.78;;;2.40;;
9248;SDS011;4660;41.768;26.198;2022-07-09T07:36:01;5.57;;;2.47;;
9248;SDS011;4660;41.768;26.198;2022-07-09T07:38:35;4.10;;;3.00;;
9248;SDS011;4660;41.768;26.198;2022-07-09T07:41:03;5.28;;;2.83;;
9248;SDS011;4660;41.768;26.198;2022-07-09T07:43:32;3.53;;;2.40;;
9248;SDS011;4660;41.768;26.198;2022-07-09T07:45:59;3.28;;;2.28;;
9248;SDS011;4660;41.768;26.198;2022-07-09T07:48:30;4.53;;;3.38;;
9248;SDS011;4660;41.768;26.198;2022-07-09T07:51:43;3.40;;;2.70;;
9248;SDS011;4660;41.768;26.198;2022-07-09T07:54:09;4.68;;;2.60;;
9248;SDS011;4660;41.768;26.198;2022-07-09T07:56:55;5.95;;;2.70;;
9248;SDS011;4660;41.768;26.198;2022-07-09T07:59:42;4.10;;;2.33;;
9248;SDS011;4660;41.768;26.198;2022-07-09T08:02:08;3.05;;;2.38;;
9248;SDS011;4660;41.768;26.198;2022-07-09T08:04:34;3.08;;;2.72;;
9248;SDS011;4660;41.768;26.198;2022-07-09T08:07:00;5.75;;;2.47;;
9248;SDS011;4660;41.768;26.198;2022-07-09T08:09:26;3.50;;;2.33;;
9248;SDS011;4660;41.768;26.198;2022-07-09T08:11:51;3.00;;;2.35;;
9248;SDS011;4660;41.768;26.198;2022-07-09T08:14:17;6.20;;;2.92;;
9248;SDS011;4660;41.768;26.198;2022-07-09T08:16:43;2.42;;;2.15;;
9248;SDS011;4660;41.768;26.198;2022-07-09T08:19:09;3.65;;;2.42;;
9248;SDS011;4660;41.768;26.198;2022-07-09T08:21:35;3.85;;;2.40;;
9248;SDS011;4660;41.768;26.198;2022-07-09T08:24:00;4.47;;;2.63;;
9248;SDS011;4660;41.768;26.198;2022-07-09T08:26:30;3.60;;;2.45;;
9248;SDS011;4660;41.768;26.198;2022-07-09T08:28:57;6.20;;;2.80;;
9248;SDS011;4660;41.768;26.198;2022-07-09T08:31:23;2.20;;;2.03;;
9248;SDS011;4660;41.768;26.198;2022-07-09T08:33:50;2.60;;;2.40;;
9248;SDS011;4660;41.768;26.198;2022-07-09T08:36:16;4.07;;;2.75;;
9248;SDS011;4660;41.768;26.198;2022-07-09T08:38:43;4.10;;;2.40;;
9248;SDS011;4660;41.768;26.198;2022-07-09T08:41:09;3.28;;;2.97;;
9248;SDS011;4660;41.768;26.198;2022-07-09T08:43:37;7.13;;;3.00;;
9248;SDS011;4660;41.768;26.198;2022-07-09T08:46:04;2.42;;;2.22;;
9248;SDS011;4660;41.768;26.198;2022-07-09T08:48:32;2.55;;;2.35;;
9248;SDS011;4660;41.768;26.198;2022-07-09T08:51:03;3.50;;;2.58;;
9248;SDS011;4660;41.768;26.198;2022-07-09T08:53:30;2.60;;;2.33;;
9248;SDS011;4660;41.768;26.198;2022-07-09T08:55:56;4.93;;;2.55;;
9248;SDS011;4660;41.768;26.198;2022-07-09T08:58:22;3.60;;;2.97;;
9248;SDS011;4660;41.768;26.198;2022-07-09T09:00:51;3.10;;;2.75;;
9248;SDS011;4660;41.768;26.198;2022-07-09T09:03:18;4.47;;;2.75;;
9248;SDS011;4660;41.768;26.198;2022-07-09T09:06:04;4.50;;;2.65;;
9248;SDS011;4660;41.768;26.198;2022-07-09T09:08:35;3.85;;;2.53;;
9248;SDS011;4660;41.768;26.198;2022-07-09T09:11:14;4.07;;;2.90;;
9248;SDS011;4660;41.768;26.198;2022-07-09T09:14:02;4.32;;;2.60;;
9248;SDS011;4660;41.768;26.198;2022-07-09T09:16:30;4.20;;;2.58;;
9248;SDS011;4660;41.768;26.198;2022-07-09T09:19:16;2.67;;;2.30;;
9248;SDS011;4660;41.768;26.198;2022-07-09T09:22:06;6.78;;;2.97;;
9248;SDS011;4660;41.768;26.198;2022-07-09T09:24:43;2.38;;;2.15;;
9248;SDS011;4660;41.768;26.198;2022-07-09T09:27:28;3.47;;;2.38;;
9248;SDS011;4660;41.768;26.198;2022-07-09T09:30:12;5.85;;;2.78;;
9248;SDS011;4660;41.768;26.198;2022-07-09T09:32:59;2.75;;;2.55;;
9248;SDS011;4660;41.768;26.198;2022-07-09T09:35:27;7.72;;;3.13;;
9248;SDS011;4660;41.768;26.198;2022-07-09T09:37:58;5.13;;;2.45;;
9248;SDS011;4660;41.768;26.198;2022-07-09T09:40:55;6.55;;;2.83;;
9248;SDS011;4660;41.768;26.198;2022-07-09T09:44:03;3.15;;;2.55;;
9248;SDS011;4660;41.768;26.198;2022-07-09T09:47:07;2.20;;;2.05;;
9248;SDS011;4660;41.768;26.198;2022-07-09T09:49:53;3.75;;;2.38;;
9248;SDS011;4660;41.768;26.198;2022-07-09T09:52:45;3.53;;;2.33;;
9248;SDS011;4660;41.768;26.198;2022-07-09T09:55:14;5.55;;;3.47;;
9248;SDS011;4660;41.768;26.198;2022-07-09T09:58:05;2.88;;;2.17;;
9248;SDS011;4660;41.768;26.198;2022-07-09T10:00:37;2.45;;;2.25;;
9248;SDS011;4660;41.768;26.198;2022-07-09T10:03:05;4.00;;;2.30;;
9248;SDS011;4660;41.768;26.198;2022-07-09T10:05:32;6.47;;;3.28;;
9248;SDS011;4660;41.768;26.198;2022-07-09T10:13:23;2.95;;;2.45;;
9248;SDS011;4660;41.768;26.198;2022-07-09T10:16:33;4.03;;;2.40;;
9248;SDS011;4660;41.768;26.198;2022-07-09T10:19:24;3.13;;;2.15;;
9248;SDS011;4660;41.768;26.198;2022-07-09T10:22:08;4.38;;;2.65;;
9248;SDS011;4660;41.768;26.198;2022-07-09T10:25:28;6.85;;;5.05;;
9248;SDS011;4660;41.768;26.198;2022-07-09T10:28:40;10.68;;;5.88;;
9248;SDS011;4660;41.768;26.198;2022-07-09T10:31:20;4.22;;;3.20;;
9248;SDS011;4660;41.768;26.198;2022-07-09T10:34:06;2.65;;;2.45;;
9248;SDS011;4660;41.768;26.198;2022-07-09T10:36:40;7.93;;;3.50;;
9248;SDS011;4660;41.768;26.198;2022-07-09T10:39:24;8.45;;;4.70;;
9248;SDS011;4660;41.768;26.198;2022-07-09T10:42:20;6.32;;;3.45;;
9248;SDS011;4660;41.768;26.198;2022-07-09T10:44:55;4.95;;;3.25;;
9248;SDS011;4660;41.768;26.198;2022-07-09T10:47:57;2.65;;;2.10;;
9248;SDS011;4660;41.768;26.198;2022-07-09T10:51:03;5.88;;;4.25;;
9248;SDS011;4660;41.768;26.198;2022-07-09T10:53:59;5.97;;;3.53;;
9248;SDS011;4660;41.768;26.198;2022-07-09T10:56:42;2.67;;;2.30;;
9248;SDS011;4660;41.768;26.198;2022-07-09T10:59:15;3.58;;;2.45;;
9248;SDS011;4660;41.768;26.198;2022-07-09T11:01:45;3.25;;;2.45;;
9248;SDS011;4660;41.768;26.198;2022-07-09T11:04:11;3.17;;;2.22;;
9248;SDS011;4660;41.768;26.198;2022-07-09T11:06:47;4.68;;;2.60;;
9248;SDS011;4660;41.768;26.198;2022-07-09T11:09:13;4.45;;;2.55;;
9248;SDS011;4660;41.768;26.198;2022-07-09T11:11:44;3.95;;;2.65;;
9248;SDS011;4660;41.768;26.198;2022-07-09T11:14:13;5.65;;;2.75;;
9248;SDS011;4660;41.768;26.198;2022-07-09T11:17:13;2.67;;;2.47;;
9248;SDS011;4660;41.768;26.198;2022-07-09T11:20:20;2.85;;;2.63;;
9248;SDS011;4660;41.768;26.198;2022-07-09T11:22:47;3.17;;;2.53;;
9248;SDS011;4660;41.768;26.198;2022-07-09T11:25:17;3.25;;;2.67;;
9248;SDS011;4660;41.768;26.198;2022-07-09T11:27:43;3.67;;;2.40;;
9248;SDS011;4660;41.768;26.198;2022-07-09T11:30:11;6.72;;;2.78;;
9248;SDS011;4660;41.768;26.198;2022-07-09T11:32:55;3.53;;;2.65;;
9248;SDS011;4660;41.768;26.198;2022-07-09T11:35:25;3.60;;;2.47;;
9248;SDS011;4660;41.768;26.198;2022-07-09T11:38:33;3.72;;;2.70;;
9248;SDS011;4660;41.768;26.198;2022-07-09T11:41:12;3.30;;;3.03;;
9248;SDS011;4660;41.768;26.198;2022-07-09T11:43:39;2.70;;;2.50;;
9248;SDS011;4660;41.768;26.198;2022-07-09T11:47:30;4.45;;;2.97;;
9248;SDS011;4660;41.768;26.198;2022-07-09T11:50:11;3.20;;;2.90;;
9248;SDS011;4660;41.768;26.198;2022-07-09T11:52:50;2.60;;;2.40;;
9248;SDS011;4660;41.768;26.198;2022-07-09T11:55:30;3.03;;;2.35;;
9248;SDS011;4660;41.768;26.198;2022-07-09T11:59:13;3.00;;;2.70;;
9248;SDS011;4660;41.768;26.198;2022-07-09T12:02:21;2.40;;;2.20;;
9248;SDS011;4660;41.768;26.198;2022-07-09T12:05:24;2.92;;;2.10;;
9248;SDS011;4660;41.768;26.198;2022-07-09T12:08:09;5.32;;;2.47;;
9248;SDS011;4660;41.768;26.198;2022-07-09T12:10:58;2.80;;;2.38;;
9248;SDS011;4660;41.768;26.198;2022-07-09T12:13:29;2.97;;;2.40;;
9248;SDS011;4660;41.768;26.198;2022-07-09T12:15:56;2.67;;;2.20;;
9248;SDS011;4660;41.768;26.198;2022-07-09T12:19:19;3.72;;;2.35;;
9248;SDS011;4660;41.768;26.198;2022-07-09T12:21:47;2.28;;;2.13;;
9248;SDS011;4660;41.768;26.198;2022-07-09T12:24:24;2.47;;;2.20;;
9248;SDS011;4660;41.768;26.198;2022-07-09T12:27:30;4.50;;;2.60;;
9248;SDS011;4660;41.768;26.198;2022-07-09T12:29:59;3.33;;;2.50;;
9248;SDS011;4660;41.768;26.198;2022-07-09T12:33:25;2.45;;;2.20;;
9248;SDS011;4660;41.768;26.198;2022-07-09T12:35:53;9.63;;;1.95;;
9248;SDS011;4660;41.768;26.198;2022-07-09T12:38:30;2.55;;;2.35;;
9248;SDS011;4660;41.768;26.198;2022-07-09T12:40:57;5.55;;;2.50;;
9248;SDS011;4660;41.768;26.198;2022-07-09T12:43:59;3.35;;;2.15;;
9248;SDS011;4660;41.768;26.198;2022-07-09T12:46:27;4.43;;;2.03;;
9248;SDS011;4660;41.768;26.198;2022-07-09T12:49:08;5.90;;;2.60;;
9248;SDS011;4660;41.768;26.198;2022-07-09T12:51:44;3.85;;;2.33;;
9248;SDS011;4660;41.768;26.198;2022-07-09T12:54:14;4.15;;;2.00;;
9248;SDS011;4660;41.768;26.198;2022-07-09T12:56:40;4.55;;;2.10;;
9248;SDS011;4660;41.768;26.198;2022-07-09T12:59:16;8.68;;;2.40;;
9248;SDS011;4660;41.768;26.198;2022-07-09T13:01:44;5.20;;;2.10;;
9248;SDS011;4660;41.768;26.198;2022-07-09T13:04:14;2.55;;;2.05;;
9248;SDS011;4660;41.768;26.198;2022-07-09T13:06:53;3.28;;;2.00;;
9248;SDS011;4660;41.768;26.198;2022-07-09T13:09:23;2.97;;;2.25;;
9248;SDS011;4660;41.768;26.198;2022-07-09T13:12:03;3.97;;;2.10;;
9248;SDS011;4660;41.768;26.198;2022-07-09T13:14:35;3.58;;;1.92;;
9248;SDS011;4660;41.768;26.198;2022-07-09T13:17:02;7.78;;;2.42;;
9248;SDS011;4660;41.768;26.198;2022-07-09T13:19:59;4.35;;;1.98;;
9248;SDS011;4660;41.768;26.198;2022-07-09T13:22:25;2.75;;;1.88;;
9248;SDS011;4660;41.768;26.198;2022-07-09T13:25:12;4.43;;;2.70;;
9248;SDS011;4660;41.768;26.198;2022-07-09T13:27:40;2.22;;;2.10;;
9248;SDS011;4660;41.768;26.198;2022-07-09T13:30:27;2.20;;;2.00;;
9248;SDS011;4660;41.768;26.198;2022-07-09T13:32:53;4.53;;;2.10;;
9248;SDS011;4660;41.768;26.198;2022-07-09T13:35:39;5.10;;;2.13;;
9248;SDS011;4660;41.768;26.198;2022-07-09T13:38:09;4.57;;;2.20;;
9248;SDS011;4660;41.768;26.198;2022-07-09T13:41:32;3.65;;;1.85;;
9248;SDS011;4660;41.768;26.198;2022-07-09T13:44:05;1.98;;;1.75;;
9248;SDS011;4660;41.768;26.198;2022-07-09T13:46:34;2.25;;;2.05;;
9248;SDS011;4660;41.768;26.198;2022-07-09T13:49:05;3.53;;;1.88;;
9248;SDS011;4660;41.768;26.198;2022-07-09T13:51:30;7.22;;;2.30;;
9248;SDS011;4660;41.768;26.198;2022-07-09T13:54:05;1.60;;;1.50;;
9248;SDS011;4660;41.768;26.198;2022-07-09T13:56:34;3.85;;;1.80;;
9248;SDS011;4660;41.768;26.198;2022-07-09T13:59:01;4.43;;;2.00;;
9248;SDS011;4660;41.768;26.198;2022-07-09T14:01:42;4.15;;;2.10;;
9248;SDS011;4660;41.768;26.198;2022-07-09T14:04:16;3.05;;;1.80;;
9248;SDS011;4660;41.768;26.198;2022-07-09T14:06:51;3.70;;;1.60;;
9248;SDS011;4660;41.768;26.198;2022-07-09T14:10:13;6.05;;;2.00;;
9248;SDS011;4660;41.768;26.198;2022-07-09T14:12:42;4.85;;;2.20;;
9248;SDS011;4660;41.768;26.198;2022-07-09T14:15:31;3.20;;;1.88;;
9248;SDS011;4660;41.768;26.198;2022-07-09T14:18:21;1.90;;;1.75;;
9248;SDS011;4660;41.768;26.198;2022-07-09T14:20:48;6.97;;;1.92;;
9248;SDS011;4660;41.768;26.198;2022-07-09T14:23:15;8.50;;;2.00;;
9248;SDS011;4660;41.768;26.198;2022-07-09T14:25:42;3.28;;;1.88;;
9248;SDS011;4660;41.768;26.198;2022-07-09T14:34:02;1.77;;;1.67;;
9248;SDS011;4660;41.768;26.198;2022-07-09T14:36:39;4.30;;;1.52;;
9248;SDS011;4660;41.768;26.198;2022-07-09T14:39:16;2.47;;;1.52;;
9248;SDS011;4660;41.768;26.198;2022-07-09T14:45:00;8.80;;;1.73;;
9248;SDS011;4660;41.768;26.198;2022-07-09T14:47:50;5.40;;;1.70;;
9248;SDS011;4660;41.768;26.198;2022-07-09T14:50:19;5.78;;;1.83;;
9248;SDS011;4660;41.768;26.198;2022-07-09T14:52:45;2.88;;;1.70;;
9248;SDS011;4660;41.768;26.198;2022-07-09T14:55:29;8.00;;;2.10;;
9248;SDS011;4660;41.768;26.198;2022-07-09T14:57:56;5.20;;;1.98;;
9248;SDS011;4660;41.768;26.198;2022-07-09T15:00:21;2.55;;;2.05;;
9248;SDS011;4660;41.768;26.198;2022-07-09T15:03:08;4.82;;;1.75;;
9248;SDS011;4660;41.768;26.198;2022-07-09T15:05:55;2.35;;;1.58;;
9248;SDS011;4660;41.768;26.198;2022-07-09T15:18:48;7.05;;;1.90;;
9248;SDS011;4660;41.768;26.198;2022-07-09T15:21:47;2.25;;;1.95;;
9248;SDS011;4660;41.768;26.198;2022-07-09T15:24:38;4.05;;;1.80;;
9248;SDS011;4660;41.768;26.198;2022-07-09T15:27:05;2.13;;;1.67;;
9248;SDS011;4660;41.768;26.198;2022-07-09T15:37:27;4.80;;;1.90;;
9248;SDS011;4660;41.768;26.198;2022-07-09T15:40:02;3.45;;;1.42;;
9248;SDS011;4660;41.768;26.198;2022-07-09T15:42:47;5.05;;;2.00;;
9248;SDS011;4660;41.768;26.198;2022-07-09T15:45:36;3.15;;;1.60;;
9248;SDS011;4660;41.768;26.198;2022-07-09T15:48:04;4.30;;;1.80;;
9248;SDS011;4660;41.768;26.198;2022-07-09T15:50:33;4.25;;;1.70;;
9248;SDS011;4660;41.768;26.198;2022-07-09T15:53:20;4.38;;;1.55;;
9248;SDS011;4660;41.768;26.198;2022-07-09T15:56:06;4.75;;;1.80;;
9248;SDS011;4660;41.768;26.198;2022-07-09T15:58:34;5.53;;;1.63;;
9248;SDS011;4660;41.768;26.198;2022-07-09T16:01:04;1.92;;;1.50;;
9248;SDS011;4660;41.768;26.198;2022-07-09T16:03:35;4.15;;;1.67;;
9248;SDS011;4660;41.768;26.198;2022-07-09T16:06:02;4.53;;;1.40;;
9248;SDS011;4660;41.768;26.198;2022-07-09T16:08:28;4.90;;;1.52;;
9248;SDS011;4660;41.768;26.198;2022-07-09T16:10:55;7.47;;;1.90;;
9248;SDS011;4660;41.768;26.198;2022-07-09T16:13:44;5.55;;;1.80;;
9248;SDS011;4660;41.768;26.198;2022-07-09T16:16:10;3.80;;;1.88;;
9248;SDS011;4660;41.768;26.198;2022-07-09T16:18:36;3.85;;;1.77;;
9248;SDS011;4660;41.768;26.198;2022-07-09T16:21:02;1.52;;;1.42;;
9248;SDS011;4660;41.768;26.198;2022-07-09T16:23:29;2.97;;;1.42;;
9248;SDS011;4660;41.768;26.198;2022-07-09T16:26:35;3.88;;;1.60;;
9248;SDS011;4660;41.768;26.198;2022-07-09T16:29:22;4.70;;;1.83;;
9248;SDS011;4660;41.768;26.198;2022-07-09T16:31:47;2.53;;;1.73;;
9248;SDS011;4660;41.768;26.198;2022-07-09T16:34:39;2.95;;;2.00;;